Data for 03/10/2015

Time Sea-Level Adjusted Pressure Absolute Pressure Temperature Relative Humidity Dew Point   
(mb) (inHg) (mb) (inHg) (C) (F) (%) (C) (F)
00:05 1018 30.06 847 25.01 4.6 40.3 31 -11.2 11.8
00:10 1018 30.06 847 25.01 4.5 40.1 31 -11.3 11.6
00:15 1018 30.06 847 25.01 4.4 40 31 -11.4 11.4
00:20 1018 30.06 847 25.01 4.4 40 30 -11.9 10.6
00:25 1018 30.06 847 25.01 4.7 40.4 30 -11.6 11.1
00:30 1018 30.06 847 25.01 4.5 40.1 29 -12.1 10.3
00:35 1018 30.06 847 25.01 4.9 40.8 29 -11.6 11.1
00:40 1018 30.06 847 25.01 4.8 40.6 29 -11.7 10.9
00:45 1018 30.06 847 25.01 4.7 40.4 30 -11.5 11.2
00:50 1018 30.06 847 25.01 4.3 39.8 33 -10.7 12.7
00:55 1018 30.06 847 25.01 3.9 39.1 31 -11.8 10.7
01:00 1018 30.06 847 25.01 4 39.2 31 -11.7 11
01:05 1018 30.06 848 25.04 3.8 38.9 31 -12 10.3
01:10 1018 30.06 848 25.04 4.4 40 29 -12.2 10.1
01:15 1018 30.06 848 25.04 4.6 40.4 30 -11.7 11
01:20 1018 30.06 848 25.04 3.9 39.1 32 -11.4 11.5
01:25 1018 30.06 848 25.04 3.2 37.7 33 -11.7 10.9
01:30 1018 30.06 848 25.04 3.1 37.6 34 -11.1 12
01:35 1018 30.06 848 25.04 3.1 37.7 35 -10.9 12.4
01:40 1018 30.06 848 25.04 2.9 37.1 36 -10.9 12.3
01:45 1018 30.06 848 25.04 2.2 35.9 38 -10.7 12.7
01:50 1018 30.06 848 25.04 1.8 35.3 37 -11.2 11.8
01:55 1018 30.06 848 25.04 2.3 36.1 37 -11.1 12
02:00 1019 30.09 848 25.04 2.4 36.3 36 -11.1 12
02:05 1019 30.09 848 25.04 2.2 36 37 -10.9 12.3
02:10 1019 30.09 848 25.04 2 35.7 39 -10.7 12.8
02:15 1018 30.06 848 25.04 2.5 36.5 34 -11.9 10.6
02:20 1018 30.06 848 25.04 2.8 37.1 35 -11.1 12
02:25 1019 30.09 848 25.04 2.6 36.7 36 -11 12.1
02:30 1019 30.09 848 25.04 2.3 36.1 37 -11.1 12.1
02:35 1019 30.09 848 25.04 2.5 36.4 35 -11.5 11.3
02:40 1019 30.09 848 25.04 2.5 36.5 35 -11.3 11.6
02:45 1018 30.06 848 25.04 2.5 36.5 35 -11.4 11.4
02:50 1019 30.09 848 25.04 2.3 36.2 34 -12.1 10.3
02:55 1019 30.09 848 25.04 3.2 37.7 31 -12.3 9.8
03:00 1018 30.06 848 25.04 3.6 38.4 32 -11.8 10.7
03:05 1018 30.06 848 25.04 3.5 38.4 31 -12 10.4
03:10 1018 30.06 848 25.04 3.5 38.2 31 -12 10.5
03:15 1018 30.06 848 25.04 3.6 38.5 31 -12.2 10.1
03:20 1018 30.06 848 25.04 3.7 38.6 31 -12 10.3
03:25 1018 30.06 848 25.04 3.5 38.3 32 -11.8 10.8
03:30 1018 30.06 848 25.04 3.2 37.8 33 -11.7 11
03:35 1018 30.06 848 25.04 2.9 37.3 34 -11.6 11.1
03:40 1018 30.06 848 25.04 2.7 36.9 34 -11.7 11
03:45 1018 30.06 848 25.04 2.5 36.5 35 -11.3 11.7
03:50 1018 30.06 848 25.04 2.2 36 36 -11.3 11.6
03:55 1018 30.06 848 25.04 2.1 35.7 37 -11.1 11.9
04:00 1018 30.06 848 25.04 1.8 35.3 38 -11.2 11.8
04:05 1018 30.06 848 25.04 1.6 34.9 38 -11.2 11.9
04:10 1018 30.06 848 25.04 1.4 34.6 39 -11.1 12
04:15 1018 30.06 848 25.04 1.4 34.6 38 -11.5 11.3
04:20 1018 30.06 848 25.04 1.8 35.3 37 -11.4 11.5
04:25 1018 30.06 848 25.04 2 35.5 36 -11.6 11.1
04:30 1018 30.06 848 25.04 2 35.6 37 -11.4 11.5
04:35 1019 30.09 848 25.04 1.9 35.4 37 -11.4 11.6
04:40 1019 30.09 848 25.04 1.7 35.1 37 -11.3 11.6
04:45 1019 30.09 848 25.04 1.7 35.1 37 -11.4 11.6
04:50 1019 30.09 848 25.04 1.6 34.9 38 -11.4 11.5
04:55 1019 30.09 848 25.04 1.5 34.6 38 -11.3 11.6
05:00 1019 30.09 848 25.04 1.5 34.7 37 -11.6 11.1
05:05 1019 30.09 848 25.04 1.8 35.2 36 -11.6 11.1
05:10 1019 30.09 848 25.04 1.9 35.5 36 -11.6 11.1
05:15 1019 30.09 848 25.04 1.9 35.5 36 -11.5 11.2
05:20 1019 30.09 848 25.04 1.8 35.3 37 -11.4 11.5
05:25 1019 30.09 848 25.04 1.6 34.8 38 -11.3 11.7
05:30 1019 30.09 848 25.04 1.3 34.3 39 -11.2 11.8
05:35 1019 30.09 848 25.04 1.2 34.2 39 -11.4 11.6
05:40 1019 30.09 848 25.04 1.2 34.2 39 -11.4 11.6
05:45 1019 30.09 848 25.04 1.3 34.3 39 -11.3 11.6
05:50 1019 30.09 848 25.04 1.6 34.9 37 -11.6 11.1
05:55 1019 30.09 848 25.04 1.8 35.2 36 -11.6 11.1
06:00 1019 30.09 848 25.04 1.8 35.2 37 -11.5 11.4
06:05 1019 30.09 848 25.04 1.5 34.8 38 -11.5 11.4
06:10 1019 30.09 848 25.04 1.4 34.4 38 -11.6 11.2
06:15 1019 30.09 848 25.04 1.3 34.4 38 -11.4 11.4
06:20 1019 30.09 848 25.04 1.2 34.1 39 -11.2 11.8
06:25 1019 30.09 848 25.04 1.1 33.9 39 -11.5 11.3
06:30 1019 30.09 848 25.04 1.1 34 37 -11.9 10.6
06:35 1019 30.09 848 25.04 1.7 35 36 -12 10.3
06:40 1019 30.09 848 25.04 1.8 35.2 38 -11.1 12
06:45 1019 30.09 848 25.04 1.9 35.4 36 -11.6 11.1
06:50 1019 30.09 848 25.04 1.8 35.2 39 -10.9 12.4
06:55 1019 30.09 848 25.04 1.7 35.1 36 -11.7 10.9
07:00 1019 30.09 848 25.04 1.9 35.3 36 -11.5 11.2
07:05 1019 30.09 848 25.04 1.9 35.4 36 -11.7 10.9
07:10 1019 30.09 848 25.04 2.2 36 35 -11.7 10.9
07:15 1019 30.09 848 25.04 2.5 36.5 34 -11.7 10.9
07:20 1019 30.09 848 25.04 2.6 36.6 34 -11.8 10.7
07:25 1019 30.09 848 25.04 2.6 36.7 35 -11.5 11.3
07:30 1019 30.09 848 25.04 2.4 36.2 36 -11.2 11.8
07:35 1019 30.09 848 25.04 2 35.7 37 -11.2 11.8
07:40 1019 30.09 848 25.04 1.9 35.5 37 -11.3 11.7
07:45 1019 30.09 848 25.04 2.2 36 34 -11.9 10.6
07:50 1019 30.09 848 25.04 2.8 37.1 33 -12.1 10.2
07:55 1019 30.09 848 25.04 3.1 37.6 33 -11.7 10.9
08:00 1019 30.09 848 25.04 3.9 39 30 -12 10.3
08:05 1019 30.09 848 25.04 4.7 40.5 30 -11.6 11.1
08:10 1019 30.09 848 25.04 5 41 29 -11.8 10.8
08:15 1019 30.09 848 25.04 5.2 41.3 29 -11.6 11.2
08:20 1019 30.09 848 25.04 5.4 41.7 29 -11.4 11.4
08:25 1019 30.09 848 25.04 5.6 42.1 29 -11.2 11.8
08:30 1019 30.09 848 25.04 5.8 42.4 29 -11.1 12.1
08:35 1019 30.09 848 25.04 5.6 42.1 29 -10.9 12.3
08:40 1019 30.09 848 25.04 6.1 43 27 -11.3 11.6
08:45 1019 30.09 848 25.04 6.5 43.7 27 -11 12.2
08:50 1019 30.09 848 25.04 6.7 44 26 -11.6 11
08:55 1019 30.09 848 25.04 7.2 44.9 25 -11.5 11.2
09:00 1019 30.09 848 25.04 7.8 46.1 25 -11.2 11.8
09:05 1019 30.09 848 25.04 8.1 46.6 23 -11.6 11.1
09:10 1019 30.09 848 25.04 8.4 47 23 -11.8 10.8
09:15 1019 30.09 848 25.04 8.6 47.4 22 -12 10.4
09:20 1019 30.09 848 25.04 8.1 46.5 24 -11.6 11.1
09:25 1019 30.09 848 25.04 8.2 46.7 23 -11.7 10.9
09:30 1019 30.09 848 25.04 8.7 47.6 22 -11.7 10.9
09:35 1019 30.09 848 25.04 8.8 47.8 23 -11.5 11.3
09:40 1019 30.09 848 25.04 9.1 48.4 22 -11.7 10.9
09:45 1019 30.09 848 25.04 9.5 49.2 21 -11.6 11.1
09:50 1019 30.09 848 25.04 9 48.2 23 -11.3 11.7
09:55 1019 30.09 848 25.04 8.9 48.1 22 -11.8 10.7
10:00 1019 30.09 848 25.04 9.8 49.6 21 -11.4 11.4
10:05 1019 30.09 848 25.04 10.1 50.3 20 -11.5 11.2
10:10 1019 30.09 848 25.04 10.6 51 21 -11.1 12
10:15 1019 30.09 848 25.04 10.1 50.3 21 -11.3 11.6
10:20 1019 30.09 848 25.04 10.5 50.8 20 -11.8 10.7
10:25 1019 30.09 848 25.04 11 51.7 20 -11.5 11.4
10:30 1019 30.09 848 25.04 10.9 51.7 19 -11.6 11.2
10:35 1019 30.09 848 25.04 11.4 52.5 18 -11.8 10.7
10:40 1019 30.09 848 25.04 11.6 52.8 19 -11.4 11.5
10:45 1019 30.09 848 25.04 11.8 53.2 17 -12.6 9.3
10:50 1019 30.09 848 25.04 12.2 54 18 -11.7 11
10:55 1019 30.09 848 25.04 12.1 53.7 18 -11.9 10.6
11:00 1019 30.09 848 25.04 11.6 52.8 17 -12.7 9.2
11:05 1019 30.09 848 25.04 12.2 54 18 -11.7 11
11:10 1019 30.09 848 25.04 12.4 54.4 17 -11.7 11
11:15 1019 30.09 848 25.04 12.1 53.8 19 -11.2 11.9
11:20 1019 30.09 848 25.04 12.5 54.4 18 -11 12.2
11:25 1019 30.09 848 25.04 12.3 54.2 20 -10.3 13.5
11:30 1019 30.09 848 25.04 12.2 54 18 -11.5 11.2
11:35 1019 30.09 848 25.04 13 55.5 17 -11.1 12
11:40 1019 30.09 848 25.04 13.2 55.8 18 -10.7 12.8
11:45 1019 30.09 848 25.04 13.2 55.8 18 -10.5 13
11:50 1019 30.09 848 25.04 12.3 54.1 18 -11.2 11.8
11:55 1019 30.09 848 25.04 13.3 55.9 14 -13.6 7.5
12:00 1019 30.09 848 25.04 12.7 54.8 18 -11.2 11.8
12:05 1019 30.09 848 25.04 13.1 55.6 16 -12 10.5
12:10 1019 30.09 848 25.04 14.3 57.7 15 -11.9 10.5
12:15 1019 30.09 848 25.04 14.9 58.8 14 -12 10.4
12:20 1019 30.09 848 25.04 15.1 59.2 15 -11.6 11.2
12:25 1019 30.09 848 25.04 14.6 58.2 15 -12 10.3
12:30 1019 30.09 848 25.04 15.2 59.4 14 -11.9 10.5
12:35 1019 30.09 848 25.04 15.3 59.6 15 -11.6 11.2
12:40 1019 30.09 848 25.04 14.9 58.9 15 -11.1 12
12:45 1019 30.09 848 25.04 14.4 58 15 -12 10.4
12:50 1019 30.09 848 25.04 15.2 59.3 14 -11.9 10.6
12:55 1019 30.09 848 25.04 15.6 60.1 14 -11.9 10.6
13:00 1018 30.06 848 25.04 15.8 60.5 14 -11.4 11.5
13:05 1018 30.06 848 25.04 16.3 61.3 14 -11.6 11.2
13:10 1018 30.06 848 25.04 16.3 61.4 14 -11.6 11.1
13:15 1018 30.06 848 25.04 15.7 60.3 15 -10.8 12.6
13:20 1018 30.06 848 25.04 15.3 59.5 14 -11.7 10.9
13:25 1018 30.06 848 25.04 15.3 59.5 15 -11.4 11.6
13:30 1018 30.06 847 25.01 16.1 61 14 -11.5 11.3
13:35 1018 30.06 847 25.01 15.8 60.4 14 -11.2 11.8
13:40 1018 30.06 847 25.01 16.2 61.1 15 -10.8 12.5
13:45 1018 30.06 847 25.01 16.4 61.5 14 -11.2 11.8
13:50 1018 30.06 847 25.01 16.9 62.3 14 -11.1 12
13:55 1018 30.06 847 25.01 17.1 62.8 13 -11.2 11.9
14:00 1018 30.06 847 25.01 17 62.5 14 -10.9 12.3
14:05 1018 30.06 847 25.01 16.8 62.2 13 -11.5 11.4
14:10 1018 30.06 847 25.01 17.1 62.8 14 -11 12.3
14:15 1018 30.06 847 25.01 17.2 63 13 -11.4 11.5
14:20 1018 30.06 847 25.01 17.4 63.3 13 -11 12.2
14:25 1018 30.06 847 25.01 17.6 63.6 13 -11.5 11.3
14:30 1018 30.06 847 25.01 17.3 63.2 13 -11.8 10.8
14:35 1018 30.06 847 25.01 17.7 63.8 12 -11.7 10.9
14:40 1018 30.06 847 25.01 18 64.5 12 -11.5 11.3
14:45 1018 30.06 847 25.01 17.1 62.7 12 -12.4 9.6
14:50 1017 30.03 847 25.01 17.5 63.6 12 -12.3 9.8
14:55 1017 30.03 847 25.01 18 64.3 12 -11.7 11
15:00 1017 30.03 847 25.01 17.7 63.9 12 -11.8 10.7
15:05 1017 30.03 846 24.98 18 64.4 11 -12.4 9.7
15:10 1017 30.03 846 24.98 18.2 64.8 12 -11.7 10.9
15:15 1017 30.03 846 24.98 17.1 62.8 12 -12.8 9
15:20 1017 30.03 846 24.98 17.5 63.5 12 -12.4 9.7
15:25 1017 30.03 846 24.98 17.9 64.1 11 -12.7 9.2
15:30 1017 30.03 846 24.98 17.2 62.9 12 -12.6 9.4
15:35 1017 30.03 846 24.98 17.6 63.8 12 -12.4 9.7
15:40 1017 30.03 846 24.98 17.9 64.3 11 -12.8 9
15:45 1017 30.03 846 24.98 18.2 64.8 11 -13.1 8.4
15:50 1017 30.03 846 24.98 18.4 65 11 -13.1 8.4
15:55 1017 30.03 846 24.98 18.1 64.7 11 -12.7 9.1
16:00 1017 30.03 846 24.98 17.7 63.9 11 -12.7 9.2
16:05 1017 30.03 846 24.98 17.7 63.9 11 -12.6 9.3
16:10 1017 30.03 846 24.98 18.3 64.9 11 -12.8 8.9
16:15 1017 30.03 846 24.98 18.3 64.9 11 -13.1 8.4
16:20 1017 30.03 846 24.98 18.1 64.6 11 -12.7 9.1
16:25 1017 30.03 846 24.98 18 64.5 11 -13 8.6
16:30 1017 30.03 846 24.98 18.3 64.9 11 -12.8 8.9
16:35 1017 30.03 846 24.98 18.1 64.6 11 -12.4 9.6
16:40 1017 30.03 846 24.98 18.3 64.9 11 -13 8.7
16:45 1017 30.03 846 24.98 18.1 64.6 11 -12.4 9.7
16:50 1017 30.03 846 24.98 18 64.3 11 -12.5 9.5
16:55 1017 30.03 846 24.98 18 64.3 11 -12.6 9.3
17:00 1017 30.03 846 24.98 17.9 64.3 12 -11.8 10.7
17:05 1017 30.03 846 24.98 18.2 64.7 11 -12.5 9.4
17:10 1017 30.03 846 24.98 18.1 64.6 11 -12.5 9.5
17:15 1017 30.03 846 24.98 17.7 63.9 11 -12.8 9
17:20 1017 30.03 846 24.98 17.5 63.5 11 -12.8 8.9
17:25 1017 30.03 846 24.98 17.4 63.3 11 -12.9 8.8
17:30 1017 30.03 846 24.98 17.3 63.1 12 -12.6 9.3
17:35 1017 30.03 846 24.98 17 62.6 12 -12.7 9.1
17:40 1017 30.03 846 24.98 16.9 62.4 12 -12.8 9
17:45 1017 30.03 846 24.98 16.8 62.3 12 -12.8 9
17:50 1017 30.03 846 24.98 16.8 62.2 12 -12.6 9.3
17:55 1017 30.03 846 24.98 16.7 62 13 -12.3 9.9
18:00 1017 30.03 846 24.98 16.3 61.4 13 -12.2 10
18:05 1017 30.03 846 24.98 15.8 60.4 13 -12.5 9.5
18:10 1017 30.03 846 24.98 15.3 59.6 14 -12.3 9.8
18:15 1017 30.03 846 24.98 14.9 58.8 14 -12.5 9.5
18:20 1017 30.03 846 24.98 14.7 58.4 14 -12.4 9.8
18:25 1017 30.03 846 24.98 14.4 57.8 15 -12.3 9.8
18:30 1017 30.03 846 24.98 14 57.2 15 -12.2 10.1
18:35 1017 30.03 846 24.98 13.2 55.7 20 -9 15.8
18:40 1017 30.03 846 24.98 12 53.6 21 -9.5 14.9
18:45 1017 30.03 846 24.98 11.9 53.4 20 -10.2 13.6
18:50 1017 30.03 846 24.98 11.9 53.3 20 -10.2 13.6
18:55 1017 30.03 846 24.98 11.6 52.9 20 -10.5 13.1
19:00 1017 30.03 846 24.98 11.4 52.6 21 -10.4 13.2
19:05 1017 30.03 846 24.98 10.8 51.4 22 -10.2 13.6
19:10 1017 30.03 846 24.98 9.8 49.7 24 -10 14
19:15 1017 30.03 846 24.98 9.3 48.7 23 -10.7 12.8
19:20 1017 30.03 846 24.98 9.3 48.8 23 -10.7 12.8
19:25 1017 30.03 846 24.98 9.6 49.2 22 -11 12.2
19:30 1017 30.03 846 24.98 9.5 49.1 23 -10.8 12.5
19:35 1017 30.03 846 24.98 9.3 48.8 23 -10.8 12.6
19:40 1017 30.03 847 25.01 9.2 48.6 23 -11.1 12
19:45 1017 30.03 847 25.01 9.7 49.4 21 -11.9 10.6
19:50 1017 30.03 847 25.01 10.2 50.3 20 -11.6 11.1
19:55 1017 30.03 847 25.01 10 49.9 22 -10.8 12.6
20:00 1017 30.03 847 25.01 9.6 49.2 22 -11.2 11.8
20:05 1018 30.06 847 25.01 9.9 49.8 20 -11.8 10.7
20:10 1018 30.06 847 25.01 10.2 50.4 20 -11.7 11
20:15 1018 30.06 847 25.01 10.2 50.3 19 -12.2 10
20:20 1018 30.06 847 25.01 10.4 50.7 19 -12.1 10.2
20:25 1018 30.06 847 25.01 10.8 51.4 20 -11.6 11.1
20:30 1018 30.06 847 25.01 10.6 51 19 -12.2 10.1
20:35 1018 30.06 847 25.01 10.5 50.8 21 -11.2 11.8
20:40 1018 30.06 847 25.01 9.8 49.7 21 -11.3 11.6
20:45 1018 30.06 847 25.01 9.4 49 22 -11.4 11.4
20:50 1018 30.06 847 25.01 9.4 49 22 -11.3 11.7
20:55 1018 30.06 847 25.01 9.2 48.5 23 -11.1 12.1
21:00 1018 30.06 847 25.01 8.8 47.9 24 -11 12.3
21:05 1018 30.06 847 25.01 8.5 47.3 23 -11.5 11.2
21:10 1018 30.06 847 25.01 8.7 47.7 22 -11.9 10.6
21:15 1018 30.06 847 25.01 8.8 47.9 25 -10.2 13.7
21:20 1018 30.06 847 25.01 8.1 46.7 24 -11.1 12.1
21:25 1018 30.06 847 25.01 7.9 46.3 26 -10.5 13.1
21:30 1018 30.06 847 25.01 7.7 45.8 26 -10.6 13
21:35 1018 30.06 847 25.01 7.5 45.5 27 -10.4 13.3
21:40 1018 30.06 847 25.01 7.5 45.4 26 -10.6 12.9
21:45 1018 30.06 847 25.01 7.6 45.7 26 -10.6 12.9
21:50 1018 30.06 847 25.01 7.5 45.5 26 -10.9 12.4
21:55 1018 30.06 848 25.04 7.7 45.9 25 -10.9 12.3
22:00 1018 30.06 848 25.04 7.8 46 26 -10.5 13
22:05 1018 30.06 848 25.04 7.6 45.6 26 -10.6 13
22:10 1018 30.06 848 25.04 7.6 45.7 25 -11.1 12
22:15 1019 30.09 848 25.04 7.9 46.1 24 -11.5 11.4
22:20 1019 30.09 848 25.04 8.3 47 24 -11.1 12.1
22:25 1019 30.09 848 25.04 8.8 47.8 24 -10.6 12.9
22:30 1019 30.09 848 25.04 8.1 46.6 26 -10.2 13.7
22:35 1019 30.09 848 25.04 7 44.5 27 -10.6 13
22:40 1019 30.09 848 25.04 6.9 44.5 28 -10.5 13.2
22:45 1019 30.09 848 25.04 6.6 43.9 29 -10.2 13.6
22:50 1019 30.09 848 25.04 6.4 43.5 30 -10.2 13.7
22:55 1019 30.09 848 25.04 6.2 43.2 29 -10.7 12.7
23:00 1019 30.09 848 25.04 6.6 43.8 29 -10.1 13.8
23:05 1019 30.09 848 25.04 5.8 42.5 31 -10 14
23:10 1019 30.09 848 25.04 5.6 42 31 -10.3 13.5
23:15 1018 30.06 848 25.04 5.9 42.6 31 -10.1 13.8
23:20 1018 30.06 848 25.04 5.7 42.3 32 -9.9 14.2
23:25 1018 30.06 848 25.04 5.6 42.1 32 -9.9 14.1
23:30 1018 30.06 848 25.04 5.5 41.9 32 -9.9 14.2
23:35 1018 30.06 848 25.04 5.3 41.5 33 -9.8 14.3
23:40 1018 30.06 848 25.04 5.3 41.5 32 -10.3 13.4
23:45 1018 30.06 848 25.04 5.4 41.8 31 -10.2 13.6
23:50 1018 30.06 848 25.04 5.7 42.3 30 -10.5 13.1
23:55 1018 30.06 848 25.04 6 42.8 30 -10.2 13.7
24:00 1018 30.06 848 25.04 5.8 42.5 31 -10 14.1